createdAt,value
2023-01-26T00:01:17.009Z,50.33
2023-01-26T00:03:44.582Z,53.67
2023-01-26T00:06:14.230Z,50.65
2023-01-26T00:08:43.146Z,52.53
2023-01-26T00:11:14.873Z,57.47
2023-01-26T00:13:42.843Z,55.85
2023-01-26T00:16:12.354Z,53.78
2023-01-26T00:18:40.834Z,54.08
2023-01-26T00:21:11.260Z,58.20
2023-01-26T00:23:38.984Z,62.63
2023-01-26T00:26:07.110Z,61.72
2023-01-26T00:28:36.080Z,64.85
2023-01-26T00:31:04.665Z,67.13
2023-01-26T00:33:32.124Z,62.38
2023-01-26T00:35:59.611Z,65.55
2023-01-26T00:38:27.209Z,67.20
2023-01-26T00:40:54.817Z,66.95
2023-01-26T00:43:22.235Z,67.88
2023-01-26T00:45:51.230Z,64.53
2023-01-26T00:48:18.661Z,64.10
2023-01-26T00:50:46.372Z,57.67
2023-01-26T00:53:13.956Z,54.33
2023-01-26T00:55:41.320Z,54.40
2023-01-26T00:58:10.050Z,43.80
2023-01-26T01:00:39.443Z,50.85
2023-01-26T01:03:08.556Z,40.50
2023-01-26T01:05:36.011Z,46.92
2023-01-26T01:08:03.975Z,48.42
2023-01-26T01:11:05.663Z,49.80
2023-01-26T01:13:33.216Z,46.63
2023-01-26T01:16:00.588Z,45.97
2023-01-26T01:18:29.428Z,42.90
2023-01-26T01:20:57.406Z,45.53
2023-01-26T01:23:27.557Z,48.50
2023-01-26T01:25:58.833Z,54.72
2023-01-26T01:28:27.104Z,51.10
2023-01-26T01:30:55.510Z,49.88
2023-01-26T01:33:23.338Z,46.15
2023-01-26T01:35:59.419Z,50.60
2023-01-26T01:38:27.031Z,47.05
2023-01-26T01:40:55.472Z,48.70
2023-01-26T01:43:24.308Z,46.65
2023-01-26T01:45:52.607Z,50.25
2023-01-26T01:48:24.966Z,47.63
2023-01-26T01:50:56.450Z,51.05
2023-01-26T01:53:29.714Z,65.55
2023-01-26T01:56:00.177Z,45.65
2023-01-26T01:58:30.435Z,46.22
2023-01-26T02:00:59.303Z,49.90
2023-01-26T02:03:28.865Z,42.95
2023-01-26T02:05:59.364Z,45.72
2023-01-26T02:08:33.262Z,46.40
2023-01-26T02:11:05.332Z,44.22
2023-01-26T02:13:33.937Z,45.90
2023-01-26T02:16:01.712Z,39.83
2023-01-26T02:18:29.389Z,43.83
2023-01-26T02:21:00.516Z,42.78
2023-01-26T02:23:43.660Z,41.65
2023-01-26T02:26:15.225Z,43.45
2023-01-26T02:28:44.369Z,44.47
2023-01-26T02:31:13.084Z,43.10
2023-01-26T02:33:41.246Z,44.08
2023-01-26T02:36:16.891Z,44.75
2023-01-26T02:38:47.219Z,41.77
2023-01-26T02:41:38.150Z,41.90
2023-01-26T02:44:08.787Z,42.20
2023-01-26T02:46:36.128Z,46.55
2023-01-26T02:49:22.165Z,41.35
2023-01-26T02:51:49.577Z,46.20
2023-01-26T02:54:35.466Z,44.75
2023-01-26T02:57:04.307Z,42.83
2023-01-26T02:59:31.813Z,45.03
2023-01-26T03:01:59.291Z,44.47
2023-01-26T03:04:27.407Z,42.78
2023-01-26T03:06:54.705Z,42.45
2023-01-26T03:09:22.084Z,40.80
2023-01-26T03:11:49.446Z,41.05
2023-01-26T03:14:18.648Z,40.70
2023-01-26T03:16:46.196Z,42.90
2023-01-26T03:19:34.150Z,39.42
2023-01-26T03:22:20.468Z,38.15
2023-01-26T03:25:06.354Z,43.33
2023-01-26T03:27:40.955Z,44.85
2023-01-26T03:30:13.106Z,44.17
2023-01-26T03:32:40.956Z,41.47
2023-01-26T03:35:10.835Z,41.17
2023-01-26T03:37:40.722Z,40.42
2023-01-26T03:40:29.205Z,41.30
2023-01-26T03:43:14.918Z,42.43
2023-01-26T03:46:02.204Z,43.05
2023-01-26T03:48:48.416Z,42.67
2023-01-26T03:51:34.205Z,49.15
2023-01-26T03:54:20.146Z,44.97
2023-01-26T03:56:47.510Z,47.67
2023-01-26T03:59:16.882Z,45.03
2023-01-26T04:02:06.098Z,46.28
2023-01-26T04:04:52.201Z,42.42
2023-01-26T04:07:38.009Z,46.45
2023-01-26T04:10:08.120Z,38.83
2023-01-26T04:12:42.182Z,42.42
2023-01-26T04:15:28.614Z,42.13
2023-01-26T04:18:16.151Z,46.05
2023-01-26T04:21:02.014Z,42.13
2023-01-26T04:23:29.493Z,44.38
2023-01-26T04:25:56.864Z,43.95
2023-01-26T04:28:24.517Z,46.55
2023-01-26T04:30:52.779Z,42.97
2023-01-26T04:33:21.719Z,45.05
2023-01-26T04:35:48.970Z,44.17
2023-01-26T04:38:16.219Z,41.88
2023-01-26T04:40:45.179Z,44.97
2023-01-26T04:43:12.420Z,42.58
2023-01-26T04:45:39.798Z,43.33
2023-01-26T04:48:07.252Z,44.05
2023-01-26T04:50:36.349Z,45.40
2023-01-26T04:53:03.765Z,43.78
2023-01-26T04:55:30.990Z,44.08
2023-01-26T04:57:58.644Z,40.63
2023-01-26T05:00:27.209Z,40.88
2023-01-26T05:02:54.604Z,42.03
2023-01-26T05:05:21.946Z,45.85
2023-01-26T05:07:50.641Z,42.97
2023-01-26T05:10:18.253Z,40.17
2023-01-26T05:12:45.618Z,42.97
2023-01-26T05:15:13.169Z,46.53
2023-01-26T05:17:40.531Z,47.72
2023-01-26T05:20:10.108Z,48.50
2023-01-26T05:22:40.824Z,47.05
2023-01-26T05:25:09.960Z,45.67
2023-01-26T05:27:38.833Z,44.47
2023-01-26T05:30:06.885Z,44.50
2023-01-26T05:32:35.710Z,45.33
2023-01-26T05:35:03.634Z,40.72
2023-01-26T05:37:30.988Z,44.30
2023-01-26T05:40:00.884Z,41.20
2023-01-26T05:42:29.712Z,44.75
2023-01-26T05:44:57.094Z,42.90
2023-01-26T05:47:24.574Z,45.58
2023-01-26T05:49:52.532Z,48.43
2023-01-26T05:52:21.047Z,48.63
2023-01-26T05:54:48.814Z,42.30
2023-01-26T05:57:17.652Z,43.22
2023-01-26T05:59:46.415Z,44.38
2023-01-26T06:02:13.775Z,51.67
2023-01-26T06:04:41.107Z,47.25
2023-01-26T06:07:08.407Z,43.70
2023-01-26T06:09:35.901Z,38.67
2023-01-26T06:12:03.786Z,42.92
2023-01-26T06:14:31.494Z,41.60
2023-01-26T06:17:00.274Z,41.53
2023-01-26T06:19:28.683Z,42.85
2023-01-26T06:21:56.029Z,41.60
2023-01-26T06:24:24.055Z,41.72
2023-01-26T06:26:51.588Z,35.53
2023-01-26T06:29:19.200Z,39.70
2023-01-26T06:31:46.836Z,38.53
2023-01-26T06:34:15.719Z,41.05
2023-01-26T06:36:43.090Z,40.85
2023-01-26T06:39:12.612Z,38.30
2023-01-26T06:41:40.411Z,39.80
2023-01-26T06:44:09.009Z,37.40
2023-01-26T06:46:40.064Z,34.05
2023-01-26T06:49:08.018Z,36.17
2023-01-26T06:51:48.053Z,41.53
2023-01-26T06:54:16.033Z,34.17
2023-01-26T06:56:43.487Z,38.03
2023-01-26T06:59:10.941Z,41.10
2023-01-26T07:01:41.164Z,36.72
2023-01-26T07:04:08.629Z,36.35
2023-01-26T07:06:35.995Z,37.38
2023-01-26T07:09:05.050Z,36.35
2023-01-26T07:11:32.864Z,35.50
2023-01-26T07:14:00.123Z,37.50
2023-01-26T07:16:27.569Z,34.03
2023-01-26T07:18:56.024Z,36.35
2023-01-26T07:21:23.604Z,34.13
2023-01-26T07:23:52.462Z,35.30
2023-01-26T07:26:21.431Z,33.60
2023-01-26T07:28:49.029Z,34.83
2023-01-26T07:31:16.605Z,33.58
2023-01-26T07:33:44.466Z,35.00
2023-01-26T07:36:11.828Z,35.83
2023-01-26T07:38:39.526Z,33.28
2023-01-26T07:41:10.047Z,30.55
2023-01-26T07:43:40.095Z,32.03
2023-01-26T07:46:07.773Z,33.67
2023-01-26T07:48:35.186Z,32.42
2023-01-26T07:51:05.176Z,31.17
2023-01-26T07:53:34.315Z,32.80
2023-01-26T07:56:10.634Z,26.42
2023-01-26T07:59:16.271Z,28.48
2023-01-26T08:05:44.518Z,26.63
2023-01-26T08:08:13.787Z,28.15
2023-01-26T08:10:41.158Z,30.55
2023-01-26T08:13:08.499Z,31.52
2023-01-26T08:15:40.333Z,29.70
2023-01-26T08:18:09.721Z,27.58
2023-01-26T08:21:05.071Z,24.88
2023-01-26T08:23:34.556Z,26.98
2023-01-26T08:26:02.641Z,27.20
2023-01-26T08:28:36.984Z,27.90
2023-01-26T08:34:07.757Z,25.85
2023-01-26T08:36:36.507Z,26.55
2023-01-26T08:39:04.470Z,26.85
2023-01-26T08:41:33.080Z,28.52
2023-01-26T08:44:00.797Z,24.63
2023-01-26T08:46:29.510Z,23.05
2023-01-26T08:48:59.299Z,22.53
2023-01-26T08:51:27.704Z,25.45
2023-01-26T08:54:37.957Z,24.10
2023-01-26T08:57:23.324Z,22.02
2023-01-26T08:59:51.036Z,26.67
2023-01-26T09:02:48.317Z,23.40
2023-01-26T09:05:17.199Z,26.38
2023-01-26T09:07:44.762Z,26.15
2023-01-26T09:10:12.885Z,27.10
2023-01-26T09:12:41.250Z,27.48
2023-01-26T09:15:11.722Z,25.55
2023-01-26T09:17:39.357Z,26.85
2023-01-26T09:20:13.159Z,29.95
2023-01-26T09:23:24.143Z,29.25
2023-01-26T09:25:55.684Z,26.30
2023-01-26T09:28:24.768Z,24.35
2023-01-26T09:30:56.793Z,28.65
2023-01-26T09:33:26.977Z,29.48
2023-01-26T09:35:56.989Z,26.95
2023-01-26T09:38:25.289Z,27.38
2023-01-26T09:41:00.875Z,27.70
2023-01-26T09:43:34.336Z,26.85
2023-01-26T09:46:12.718Z,29.58
2023-01-26T09:48:47.304Z,31.42
2023-01-26T09:51:20.587Z,28.90
2023-01-26T09:53:53.926Z,35.30
2023-01-26T09:56:25.627Z,31.02
2023-01-26T09:58:58.777Z,30.08
2023-01-26T10:01:35.385Z,30.90
2023-01-26T10:04:10.898Z,32.75
2023-01-26T10:06:40.025Z,37.13
2023-01-26T10:09:14.771Z,33.85
2023-01-26T10:11:44.912Z,33.80
2023-01-26T10:14:15.857Z,33.65
2023-01-26T10:16:45.692Z,35.83
2023-01-26T10:19:22.046Z,36.13
2023-01-26T10:21:53.519Z,38.03
2023-01-26T10:24:24.609Z,35.47
2023-01-26T10:26:57.109Z,34.42
2023-01-26T10:29:24.450Z,30.58
2023-01-26T10:31:52.064Z,29.27
2023-01-26T10:34:24.284Z,27.85
2023-01-26T10:37:06.003Z,29.30
2023-01-26T10:39:33.320Z,31.90
2023-01-26T10:42:06.335Z,27.45
2023-01-26T10:44:35.333Z,28.80
2023-01-26T10:47:06.082Z,27.80
2023-01-26T10:49:34.006Z,29.45
2023-01-26T10:52:19.532Z,26.75
2023-01-26T10:54:47.280Z,29.33
2023-01-26T10:57:19.783Z,29.50
2023-01-26T10:59:55.451Z,28.30
2023-01-26T11:02:28.047Z,26.90
2023-01-26T11:05:04.189Z,25.63
2023-01-26T11:07:40.580Z,28.95
2023-01-26T11:10:31.684Z,29.40
2023-01-26T11:13:14.734Z,29.23
2023-01-26T11:15:44.240Z,25.02
2023-01-26T11:18:33.044Z,29.15
2023-01-26T11:21:06.777Z,28.13
2023-01-26T11:23:56.139Z,27.87
2023-01-26T11:26:50.087Z,24.55
2023-01-26T11:29:39.645Z,19.95
2023-01-26T11:32:15.535Z,20.23
2023-01-26T11:35:02.179Z,21.63
2023-01-26T11:37:39.623Z,20.77
2023-01-26T11:40:28.800Z,21.20
2023-01-26T11:43:25.443Z,21.00
2023-01-26T11:46:17.572Z,24.33
2023-01-26T11:48:58.519Z,28.92
2023-01-26T11:51:40.587Z,22.15
2023-01-26T11:54:38.699Z,24.38
2023-01-26T11:57:20.888Z,21.38
2023-01-26T11:59:53.814Z,22.77
2023-01-26T12:02:29.656Z,25.30
2023-01-26T12:05:01.260Z,23.92
2023-01-26T12:07:33.831Z,18.85
2023-01-26T12:10:05.448Z,21.35
2023-01-26T12:12:40.217Z,22.25
2023-01-26T12:15:13.591Z,19.98
2023-01-26T12:17:49.938Z,23.27
2023-01-26T12:20:29.621Z,22.70
2023-01-26T12:23:03.652Z,21.25
2023-01-26T12:25:35.057Z,18.92
2023-01-26T12:28:16.700Z,22.50
2023-01-26T12:30:53.285Z,19.58
2023-01-26T12:33:21.095Z,22.48
2023-01-26T12:35:59.315Z,21.90
2023-01-26T12:38:41.177Z,22.52
2023-01-26T12:41:14.469Z,21.70
2023-01-26T12:44:02.120Z,18.65
2023-01-26T12:46:33.750Z,20.80
2023-01-26T12:49:05.432Z,20.50
2023-01-26T12:51:37.329Z,20.58
2023-01-26T12:54:09.100Z,22.52
2023-01-26T12:56:43.545Z,22.15
2023-01-26T12:59:39.173Z,18.80
2023-01-26T13:02:19.487Z,16.88
2023-01-26T13:04:49.109Z,16.27
2023-01-26T13:07:33.862Z,19.38
2023-01-26T13:10:24.368Z,17.40
2023-01-26T13:12:54.287Z,18.55
2023-01-26T13:15:24.886Z,19.02
2023-01-26T13:18:00.081Z,22.42
2023-01-26T13:20:46.391Z,23.88
2023-01-26T13:23:52.524Z,48.13
2023-01-26T13:26:51.095Z,36.08
2023-01-26T13:29:34.395Z,34.80
2023-01-26T13:32:40.370Z,33.42
2023-01-26T13:35:13.345Z,19.92
2023-01-26T13:37:51.140Z,34.65
2023-01-26T13:40:23.328Z,23.80
2023-01-26T13:42:55.578Z,21.90
2023-01-26T13:45:31.118Z,22.30
2023-01-26T13:48:02.244Z,20.98
2023-01-26T13:50:31.222Z,18.38
2023-01-26T13:52:58.890Z,19.25
2023-01-26T13:55:29.171Z,18.40
2023-01-26T13:58:12.527Z,19.38
2023-01-26T14:00:40.065Z,24.20
2023-01-26T14:03:22.003Z,16.80
2023-01-26T14:05:54.451Z,17.38
2023-01-26T14:08:22.806Z,17.85
2023-01-26T14:10:51.320Z,24.00
2023-01-26T14:13:24.065Z,27.65
2023-01-26T14:15:59.452Z,22.17
2023-01-26T14:18:28.716Z,19.55
2023-01-26T14:21:00.564Z,20.17
2023-01-26T14:23:30.039Z,19.73
2023-01-26T14:25:59.764Z,22.52
2023-01-26T14:28:31.481Z,24.77
2023-01-26T14:31:03.732Z,25.35
2023-01-26T14:33:34.584Z,26.27
2023-01-26T14:36:03.993Z,26.65
2023-01-26T14:38:43.461Z,25.75
2023-01-26T14:41:16.771Z,27.20
2023-01-26T14:43:44.165Z,25.55
2023-01-26T14:46:17.246Z,25.92
2023-01-26T14:48:50.702Z,24.77
2023-01-26T14:51:21.979Z,31.45
2023-01-26T14:53:50.642Z,32.17
2023-01-26T14:56:19.764Z,31.52
2023-01-26T14:58:52.152Z,31.65
2023-01-26T15:01:24.120Z,29.42
2023-01-26T15:03:59.869Z,31.02
2023-01-26T15:06:28.886Z,28.40
2023-01-26T15:08:59.338Z,27.02
2023-01-26T15:11:48.554Z,25.08
2023-01-26T15:14:35.635Z,26.10
2023-01-26T15:17:03.527Z,25.35
2023-01-26T15:19:52.249Z,24.98
2023-01-26T15:22:22.873Z,26.73
2023-01-26T15:25:01.728Z,27.45
2023-01-26T15:27:34.210Z,25.95
2023-01-26T15:30:02.289Z,27.65
2023-01-26T15:32:32.508Z,26.42
2023-01-26T15:35:18.866Z,25.55
2023-01-26T15:37:46.727Z,30.40
2023-01-26T15:40:15.465Z,42.08
2023-01-26T15:42:42.984Z,39.13
2023-01-26T15:45:22.853Z,27.27
2023-01-26T15:47:50.691Z,31.33
2023-01-26T15:50:27.900Z,34.58
2023-01-26T15:52:55.878Z,34.58
2023-01-26T15:55:27.659Z,30.48
2023-01-26T15:57:55.001Z,29.90
2023-01-26T16:00:23.692Z,32.40
2023-01-26T16:02:51.529Z,32.15
2023-01-26T16:05:22.747Z,29.33
2023-01-26T16:07:53.244Z,26.67
2023-01-26T16:10:20.764Z,23.80
2023-01-26T16:12:50.292Z,29.75
2023-01-26T16:15:32.772Z,60.60
2023-01-26T16:18:00.353Z,49.75
2023-01-26T16:20:29.061Z,36.03
2023-01-26T16:22:56.767Z,37.37
2023-01-26T16:25:26.981Z,39.63
2023-01-26T16:27:54.702Z,44.33
2023-01-26T16:30:22.598Z,47.92
2023-01-26T16:32:50.378Z,43.17
2023-01-26T16:35:19.884Z,34.95
2023-01-26T16:37:48.865Z,38.08
2023-01-26T16:40:18.221Z,43.22
2023-01-26T16:42:48.459Z,35.78
2023-01-26T16:45:18.159Z,38.15
2023-01-26T16:47:45.626Z,37.70
2023-01-26T16:50:13.240Z,47.35
2023-01-26T16:52:41.403Z,54.47
2023-01-26T16:55:14.016Z,57.60
2023-01-26T16:57:42.520Z,51.80
2023-01-26T17:00:16.480Z,52.53
2023-01-26T17:02:49.133Z,50.58
2023-01-26T17:05:18.347Z,49.88
2023-01-26T17:07:45.660Z,47.22
2023-01-26T17:10:15.755Z,46.55
2023-01-26T17:12:44.417Z,52.10
2023-01-26T17:15:13.060Z,83.90
2023-01-26T17:17:40.691Z,75.05
2023-01-26T17:20:18.422Z,89.60
2023-01-26T17:22:46.877Z,89.13
2023-01-26T17:25:17.093Z,96.97
2023-01-26T17:27:45.253Z,114.15
2023-01-26T17:30:13.345Z,70.03
2023-01-26T17:32:42.297Z,65.38
2023-01-26T17:35:10.230Z,57.00
2023-01-26T17:37:38.587Z,75.05
2023-01-26T17:40:08.235Z,57.88
2023-01-26T17:42:37.136Z,58.70
2023-01-26T17:45:06.530Z,74.18
2023-01-26T17:47:34.299Z,65.82
2023-01-26T17:50:01.842Z,56.75
2023-01-26T17:52:32.219Z,62.08
2023-01-26T17:55:00.138Z,74.53
2023-01-26T17:57:27.622Z,78.78
2023-01-26T17:59:56.769Z,66.97
2023-01-26T18:02:25.120Z,61.22
2023-01-26T18:04:53.248Z,61.90
2023-01-26T18:07:21.030Z,62.75
2023-01-26T18:09:49.644Z,69.13
2023-01-26T18:12:17.519Z,62.90
2023-01-26T18:14:45.073Z,66.07
2023-01-26T18:17:13.894Z,67.97
2023-01-26T18:19:41.383Z,63.83
2023-01-26T18:22:09.220Z,53.78
2023-01-26T18:24:36.772Z,45.28
2023-01-26T18:27:04.220Z,48.53
2023-01-26T18:29:32.009Z,51.28
2023-01-26T18:31:59.788Z,47.70
2023-01-26T18:34:28.897Z,55.85
2023-01-26T18:36:57.505Z,60.50
2023-01-26T18:39:25.107Z,50.75
2023-01-26T18:41:52.413Z,61.10
2023-01-26T18:44:19.647Z,61.58
2023-01-26T18:46:46.875Z,62.45
2023-01-26T18:49:14.379Z,60.85
2023-01-26T18:51:48.407Z,63.30
2023-01-26T18:54:17.619Z,79.60
2023-01-26T18:56:45.543Z,73.30
2023-01-26T18:59:13.430Z,78.07
2023-01-26T19:01:40.881Z,57.58
2023-01-26T19:04:08.659Z,54.08
2023-01-26T19:06:36.445Z,58.47
2023-01-26T19:09:08.275Z,55.03
2023-01-26T19:11:37.632Z,57.08
2023-01-26T19:14:06.665Z,58.63
2023-01-26T19:16:34.930Z,55.15
2023-01-26T19:19:02.437Z,65.15
2023-01-26T19:21:31.317Z,57.20
2023-01-26T19:24:02.618Z,53.30
2023-01-26T19:26:32.184Z,53.47
2023-01-26T19:28:59.971Z,52.47
2023-01-26T19:31:28.447Z,48.22
2023-01-26T19:33:58.596Z,50.97
2023-01-26T19:36:27.821Z,52.92
2023-01-26T19:38:55.322Z,48.40
2023-01-26T19:41:24.309Z,47.00
2023-01-26T19:43:53.083Z,54.92
2023-01-26T19:46:21.373Z,52.88
2023-01-26T19:48:49.299Z,50.97
2023-01-26T19:51:20.601Z,51.05
2023-01-26T19:53:49.955Z,54.67
2023-01-26T19:56:19.875Z,57.08
2023-01-26T19:58:50.025Z,56.60
2023-01-26T20:01:19.938Z,49.60
2023-01-26T20:03:50.758Z,38.97
2023-01-26T20:06:20.908Z,44.38
2023-01-26T20:08:48.776Z,43.97
2023-01-26T20:11:16.406Z,44.15
2023-01-26T20:13:43.975Z,39.40
2023-01-26T20:16:13.910Z,43.13
2023-01-26T20:18:42.930Z,39.83
2023-01-26T20:21:11.477Z,41.30
2023-01-26T20:23:48.449Z,46.88
2023-01-26T20:26:23.154Z,43.80
2023-01-26T20:28:51.748Z,44.00
2023-01-26T20:31:22.643Z,41.97
2023-01-26T20:33:53.581Z,43.05
2023-01-26T20:36:23.336Z,41.33
2023-01-26T20:38:51.421Z,38.15
2023-01-26T20:41:20.730Z,32.47
2023-01-26T20:44:04.731Z,33.03
2023-01-26T20:46:35.065Z,34.58
2023-01-26T20:49:05.605Z,31.45
2023-01-26T20:51:36.146Z,39.20
2023-01-26T20:54:06.327Z,34.97
2023-01-26T20:56:34.065Z,28.63
2023-01-26T20:59:02.025Z,36.35
2023-01-26T21:01:30.549Z,31.90
2023-01-26T21:03:58.110Z,33.78
2023-01-26T21:06:27.609Z,29.70
2023-01-26T21:08:56.867Z,29.92
2023-01-26T21:11:26.624Z,32.80
2023-01-26T21:13:55.578Z,31.02
2023-01-26T21:16:23.424Z,33.78
2023-01-26T21:18:51.787Z,32.83
2023-01-26T21:21:20.114Z,30.35
2023-01-26T21:23:49.311Z,31.25
2023-01-26T21:26:20.227Z,32.45
2023-01-26T21:28:51.241Z,35.55
2023-01-26T21:31:20.634Z,41.47
2023-01-26T21:33:49.376Z,48.50
2023-01-26T21:36:18.320Z,40.33
2023-01-26T21:38:50.957Z,77.80
2023-01-26T21:41:38.613Z,187.02
2023-01-26T21:44:08.609Z,91.38
2023-01-26T21:46:36.598Z,148.85
2023-01-26T21:49:04.450Z,117.45
2023-01-26T21:51:50.491Z,134.93
2023-01-26T21:54:19.261Z,69.50
2023-01-26T21:56:46.729Z,54.30
2023-01-26T21:59:15.782Z,49.35
2023-01-26T22:01:45.000Z,46.05
2023-01-26T22:04:14.346Z,39.95
2023-01-26T22:06:41.767Z,44.92
2023-01-26T22:09:10.769Z,46.27
2023-01-26T22:11:39.943Z,34.42
2023-01-26T22:14:07.858Z,33.88
2023-01-26T22:16:35.433Z,34.95
2023-01-26T22:19:03.748Z,35.05
2023-01-26T22:21:31.789Z,35.53
2023-01-26T22:23:59.223Z,29.02
2023-01-26T22:26:26.493Z,34.38
2023-01-26T22:28:57.066Z,31.40
2023-01-26T22:31:27.396Z,32.88
2023-01-26T22:33:55.699Z,25.43
2023-01-26T22:36:23.863Z,47.72
2023-01-26T22:38:52.820Z,37.42
2023-01-26T22:41:23.163Z,27.27
2023-01-26T22:43:52.718Z,27.83
2023-01-26T22:46:23.174Z,18.17
2023-01-26T22:48:51.105Z,34.45
2023-01-26T22:51:20.897Z,35.20
2023-01-26T22:53:49.596Z,28.45
2023-01-26T22:56:17.768Z,38.05
2023-01-26T22:58:57.676Z,37.53
2023-01-26T23:01:28.774Z,39.95
2023-01-26T23:03:57.310Z,37.17
2023-01-26T23:06:25.367Z,39.30
2023-01-26T23:08:52.925Z,45.00
2023-01-26T23:11:22.151Z,47.35
2023-01-26T23:13:51.565Z,39.00
2023-01-26T23:16:19.018Z,37.38
2023-01-26T23:18:47.820Z,43.92
2023-01-26T23:21:15.448Z,38.70
2023-01-26T23:23:42.741Z,36.50
2023-01-26T23:26:10.577Z,44.58
2023-01-26T23:28:39.510Z,44.22
2023-01-26T23:31:07.204Z,42.42
2023-01-26T23:33:36.072Z,36.25
2023-01-26T23:36:06.611Z,40.55
2023-01-26T23:38:34.333Z,42.65
2023-01-26T23:41:02.192Z,36.97
2023-01-26T23:43:29.489Z,37.85
2023-01-26T23:45:57.253Z,32.67
2023-01-26T23:48:25.423Z,36.90
2023-01-26T23:50:56.015Z,40.80
2023-01-26T23:53:25.037Z,37.88
2023-01-26T23:55:52.870Z,32.22
2023-01-26T23:58:20.631Z,31.52
